sensor_id;sensor_type;location;lat;lon;timestamp;pressure;altitude;pressure_sealevel;temperature;humidity
7660;BME280;3872;47.902;8.162;2023-03-15T00:01:10;91396.13;;;2.34;100.00
7660;BME280;3872;47.902;8.162;2023-03-15T00:03:39;91402.84;;;2.35;100.00
7660;BME280;3872;47.902;8.162;2023-03-15T00:06:08;91400.22;;;1.68;100.00
7660;BME280;3872;47.902;8.162;2023-03-15T00:08:36;91401.06;;;2.56;100.00
7660;BME280;3872;47.902;8.162;2023-03-15T00:11:03;91415.41;;;2.73;100.00
7660;BME280;3872;47.902;8.162;2023-03-15T00:13:30;91408.81;;;1.73;100.00
7660;BME280;3872;47.902;8.162;2023-03-15T00:15:58;91419.56;;;2.80;100.00
7660;BME280;3872;47.902;8.162;2023-03-15T00:18:26;91421.28;;;2.33;100.00
7660;BME280;3872;47.902;8.162;2023-03-15T00:20:53;91433.38;;;1.55;100.00
7660;BME280;3872;47.902;8.162;2023-03-15T00:23:21;91427.38;;;2.02;100.00
7660;BME280;3872;47.902;8.162;2023-03-15T00:25:49;91442.53;;;1.73;100.00
7660;BME280;3872;47.902;8.162;2023-03-15T00:28:16;91450.88;;;1.80;100.00
7660;BME280;3872;47.902;8.162;2023-03-15T00:30:43;91442.31;;;2.27;100.00
7660;BME280;3872;47.902;8.162;2023-03-15T00:33:12;91460.16;;;1.71;100.00
7660;BME280;3872;47.902;8.162;2023-03-15T00:35:40;91469.66;;;1.24;100.00
7660;BME280;3872;47.902;8.162;2023-03-15T00:38:07;91467.88;;;1.61;100.00
7660;BME280;3872;47.902;8.162;2023-03-15T00:40:36;91472.16;;;2.29;100.00
7660;BME280;3872;47.902;8.162;2023-03-15T00:43:03;91481.13;;;2.07;100.00
7660;BME280;3872;47.902;8.162;2023-03-15T00:45:30;91480.63;;;2.72;100.00
7660;BME280;3872;47.902;8.162;2023-03-15T00:47:56;91490.31;;;1.77;100.00
7660;BME280;3872;47.902;8.162;2023-03-15T00:50:24;91494.44;;;2.83;100.00
7660;BME280;3872;47.902;8.162;2023-03-15T00:52:50;91495.16;;;2.63;100.00
7660;BME280;3872;47.902;8.162;2023-03-15T00:55:18;91508.84;;;2.01;100.00
7660;BME280;3872;47.902;8.162;2023-03-15T00:57:48;91494.09;;;2.59;100.00
7660;BME280;3872;47.902;8.162;2023-03-15T01:00:17;91515.50;;;1.50;100.00
7660;BME280;3872;47.902;8.162;2023-03-15T01:02:47;91512.53;;;1.68;100.00
7660;BME280;3872;47.902;8.162;2023-03-15T01:05:14;91509.53;;;1.49;100.00
7660;BME280;3872;47.902;8.162;2023-03-15T01:07:40;91514.25;;;2.42;100.00
7660;BME280;3872;47.902;8.162;2023-03-15T01:10:11;91529.38;;;2.03;100.00
7660;BME280;3872;47.902;8.162;2023-03-15T01:12:38;91519.00;;;2.55;100.00
7660;BME280;3872;47.902;8.162;2023-03-15T01:15:07;91518.00;;;2.66;100.00
7660;BME280;3872;47.902;8.162;2023-03-15T01:17:36;91520.59;;;2.66;100.00
7660;BME280;3872;47.902;8.162;2023-03-15T01:20:03;91523.03;;;2.88;100.00
7660;BME280;3872;47.902;8.162;2023-03-15T01:22:31;91529.78;;;1.84;100.00
7660;BME280;3872;47.902;8.162;2023-03-15T01:24:57;91530.75;;;2.20;100.00
7660;BME280;3872;47.902;8.162;2023-03-15T01:27:24;91538.59;;;2.25;100.00
7660;BME280;3872;47.902;8.162;2023-03-15T01:29:52;91544.78;;;1.77;100.00
7660;BME280;3872;47.902;8.162;2023-03-15T01:32:19;91549.78;;;2.31;100.00
7660;BME280;3872;47.902;8.162;2023-03-15T01:34:46;91557.84;;;0.80;100.00
7660;BME280;3872;47.902;8.162;2023-03-15T01:37:13;91553.50;;;1.66;100.00
7660;BME280;3872;47.902;8.162;2023-03-15T01:39:41;91552.13;;;1.58;100.00
7660;BME280;3872;47.902;8.162;2023-03-15T01:42:08;91565.09;;;1.27;100.00
7660;BME280;3872;47.902;8.162;2023-03-15T01:44:51;91560.78;;;1.37;100.00
7660;BME280;3872;47.902;8.162;2023-03-15T01:47:20;91576.38;;;1.15;100.00
7660;BME280;3872;47.902;8.162;2023-03-15T01:49:56;91581.94;;;1.29;100.00
7660;BME280;3872;47.902;8.162;2023-03-15T01:52:25;91575.50;;;1.32;100.00
7660;BME280;3872;47.902;8.162;2023-03-15T01:55:03;91584.84;;;1.06;100.00
7660;BME280;3872;47.902;8.162;2023-03-15T01:57:34;91580.06;;;1.46;100.00
7660;BME280;3872;47.902;8.162;2023-03-15T02:00:06;91583.19;;;2.12;100.00
7660;BME280;3872;47.902;8.162;2023-03-15T02:02:44;91582.06;;;1.39;100.00
7660;BME280;3872;47.902;8.162;2023-03-15T02:05:20;91590.69;;;1.77;100.00
7660;BME280;3872;47.902;8.162;2023-03-15T02:07:47;91587.91;;;0.81;100.00
7660;BME280;3872;47.902;8.162;2023-03-15T02:10:22;91600.09;;;0.20;100.00
7660;BME280;3872;47.902;8.162;2023-03-15T02:12:54;91587.50;;;0.89;100.00
7660;BME280;3872;47.902;8.162;2023-03-15T02:15:21;91583.31;;;1.95;100.00
7660;BME280;3872;47.902;8.162;2023-03-15T02:17:49;91584.84;;;1.91;100.00
7660;BME280;3872;47.902;8.162;2023-03-15T02:20:26;91583.69;;;2.14;100.00
7660;BME280;3872;47.902;8.162;2023-03-15T02:22:58;91585.31;;;1.88;100.00
7660;BME280;3872;47.902;8.162;2023-03-15T02:25:32;91587.59;;;1.48;100.00
7660;BME280;3872;47.902;8.162;2023-03-15T02:28:07;91588.66;;;1.52;100.00
7660;BME280;3872;47.902;8.162;2023-03-15T02:30:35;91594.66;;;0.82;100.00
7660;BME280;3872;47.902;8.162;2023-03-15T02:33:04;91589.59;;;1.41;100.00
7660;BME280;3872;47.902;8.162;2023-03-15T02:35:33;91590.84;;;1.65;100.00
7660;BME280;3872;47.902;8.162;2023-03-15T02:37:59;91592.06;;;1.04;100.00
7660;BME280;3872;47.902;8.162;2023-03-15T02:40:28;91596.50;;;1.08;100.00
7660;BME280;3872;47.902;8.162;2023-03-15T02:42:56;91591.34;;;0.87;100.00
7660;BME280;3872;47.902;8.162;2023-03-15T02:45:27;91585.22;;;0.49;100.00
7660;BME280;3872;47.902;8.162;2023-03-15T02:47:56;91584.34;;;1.36;100.00
7660;BME280;3872;47.902;8.162;2023-03-15T02:50:23;91591.72;;;0.95;100.00
7660;BME280;3872;47.902;8.162;2023-03-15T02:52:50;91598.13;;;0.27;100.00
7660;BME280;3872;47.902;8.162;2023-03-15T02:55:17;91589.56;;;1.14;100.00
7660;BME280;3872;47.902;8.162;2023-03-15T02:57:46;91591.78;;;1.54;100.00
7660;BME280;3872;47.902;8.162;2023-03-15T03:00:14;91602.84;;;1.17;100.00
7660;BME280;3872;47.902;8.162;2023-03-15T03:02:44;91592.31;;;0.81;100.00
7660;BME280;3872;47.902;8.162;2023-03-15T03:05:12;91595.88;;;0.74;100.00
7660;BME280;3872;47.902;8.162;2023-03-15T03:07:39;91600.22;;;0.91;100.00
7660;BME280;3872;47.902;8.162;2023-03-15T03:10:09;91595.88;;;0.96;100.00
7660;BME280;3872;47.902;8.162;2023-03-15T03:12:44;91607.78;;;0.97;100.00
7660;BME280;3872;47.902;8.162;2023-03-15T03:15:11;91603.53;;;1.35;100.00
7660;BME280;3872;47.902;8.162;2023-03-15T03:17:37;91609.47;;;0.87;100.00
7660;BME280;3872;47.902;8.162;2023-03-15T03:20:09;91603.66;;;1.50;100.00
7660;BME280;3872;47.902;8.162;2023-03-15T03:22:41;91604.66;;;1.44;100.00
7660;BME280;3872;47.902;8.162;2023-03-15T03:25:10;91621.41;;;1.36;100.00
7660;BME280;3872;47.902;8.162;2023-03-15T03:27:38;91624.50;;;1.06;100.00
7660;BME280;3872;47.902;8.162;2023-03-15T03:30:09;91632.50;;;0.83;100.00
7660;BME280;3872;47.902;8.162;2023-03-15T03:32:38;91626.06;;;-0.08;100.00
7660;BME280;3872;47.902;8.162;2023-03-15T03:35:07;91631.16;;;1.02;100.00
7660;BME280;3872;47.902;8.162;2023-03-15T03:37:35;91628.47;;;1.68;100.00
7660;BME280;3872;47.902;8.162;2023-03-15T03:40:21;91643.44;;;1.61;100.00
7660;BME280;3872;47.902;8.162;2023-03-15T03:42:48;91640.66;;;1.99;100.00
7660;BME280;3872;47.902;8.162;2023-03-15T03:45:17;91640.84;;;1.87;100.00
7660;BME280;3872;47.902;8.162;2023-03-15T03:47:46;91643.47;;;1.92;100.00
7660;BME280;3872;47.902;8.162;2023-03-15T03:50:14;91658.13;;;1.50;100.00
7660;BME280;3872;47.902;8.162;2023-03-15T03:52:41;91657.19;;;1.34;100.00
7660;BME280;3872;47.902;8.162;2023-03-15T03:55:12;91658.03;;;1.40;100.00
7660;BME280;3872;47.902;8.162;2023-03-15T03:57:39;91659.38;;;1.21;100.00
7660;BME280;3872;47.902;8.162;2023-03-15T04:00:11;91668.47;;;1.01;100.00
7660;BME280;3872;47.902;8.162;2023-03-15T04:02:40;91667.91;;;0.77;100.00
7660;BME280;3872;47.902;8.162;2023-03-15T04:05:08;91669.38;;;0.90;100.00
7660;BME280;3872;47.902;8.162;2023-03-15T04:07:37;91665.09;;;1.23;100.00
7660;BME280;3872;47.902;8.162;2023-03-15T04:10:04;91674.19;;;1.25;100.00
7660;BME280;3872;47.902;8.162;2023-03-15T04:12:32;91675.44;;;1.23;100.00
7660;BME280;3872;47.902;8.162;2023-03-15T04:14:59;91687.25;;;1.35;100.00
7660;BME280;3872;47.902;8.162;2023-03-15T04:17:29;91686.13;;;1.26;100.00
7660;BME280;3872;47.902;8.162;2023-03-15T04:19:56;91686.28;;;0.76;100.00
7660;BME280;3872;47.902;8.162;2023-03-15T04:22:26;91694.34;;;0.79;100.00
7660;BME280;3872;47.902;8.162;2023-03-15T04:25:14;91689.84;;;0.70;100.00
7660;BME280;3872;47.902;8.162;2023-03-15T04:27:57;91702.00;;;0.03;100.00
7660;BME280;3872;47.902;8.162;2023-03-15T04:30:42;91703.22;;;0.28;100.00
7660;BME280;3872;47.902;8.162;2023-03-15T04:33:19;91701.31;;;0.24;100.00
7660;BME280;3872;47.902;8.162;2023-03-15T04:36:11;91704.59;;;0.03;100.00
7660;BME280;3872;47.902;8.162;2023-03-15T04:39:12;91703.47;;;-0.18;100.00
7660;BME280;3872;47.902;8.162;2023-03-15T04:42:03;91706.00;;;0.44;100.00
7660;BME280;3872;47.902;8.162;2023-03-15T04:44:39;91707.50;;;0.56;100.00
7660;BME280;3872;47.902;8.162;2023-03-15T04:47:25;91711.66;;;0.24;100.00
7660;BME280;3872;47.902;8.162;2023-03-15T04:50:00;91718.81;;;0.33;100.00
7660;BME280;3872;47.902;8.162;2023-03-15T04:52:33;91727.34;;;0.34;100.00
7660;BME280;3872;47.902;8.162;2023-03-15T04:55:14;91716.13;;;0.45;100.00
7660;BME280;3872;47.902;8.162;2023-03-15T04:58:05;91724.91;;;0.11;100.00
7660;BME280;3872;47.902;8.162;2023-03-15T05:00:51;91730.09;;;0.44;100.00
7660;BME280;3872;47.902;8.162;2023-03-15T05:03:18;91725.56;;;0.34;100.00
7660;BME280;3872;47.902;8.162;2023-03-15T05:06:03;91727.03;;;0.30;100.00
7660;BME280;3872;47.902;8.162;2023-03-15T05:08:44;91728.75;;;0.25;100.00
7660;BME280;3872;47.902;8.162;2023-03-15T05:11:11;91733.06;;;0.19;100.00
7660;BME280;3872;47.902;8.162;2023-03-15T05:13:57;91733.22;;;0.29;100.00
7660;BME280;3872;47.902;8.162;2023-03-15T05:16:43;91736.22;;;0.21;100.00
7660;BME280;3872;47.902;8.162;2023-03-15T05:19:30;91727.66;;;0.04;100.00
7660;BME280;3872;47.902;8.162;2023-03-15T05:22:18;91728.88;;;-0.15;100.00
7660;BME280;3872;47.902;8.162;2023-03-15T05:25:04;91739.41;;;-0.33;100.00
7660;BME280;3872;47.902;8.162;2023-03-15T05:27:51;91732.78;;;-0.13;100.00
7660;BME280;3872;47.902;8.162;2023-03-15T05:30:39;91735.50;;;-0.36;100.00
7660;BME280;3872;47.902;8.162;2023-03-15T05:33:19;91749.47;;;-0.20;100.00
7660;BME280;3872;47.902;8.162;2023-03-15T05:36:07;91755.09;;;-1.03;100.00
7660;BME280;3872;47.902;8.162;2023-03-15T05:38:44;91760.53;;;-1.28;100.00
7660;BME280;3872;47.902;8.162;2023-03-15T05:41:34;91767.97;;;-0.80;100.00
7660;BME280;3872;47.902;8.162;2023-03-15T05:44:27;91762.72;;;-0.97;100.00
7660;BME280;3872;47.902;8.162;2023-03-15T05:47:06;91766.22;;;-1.38;100.00
7660;BME280;3872;47.902;8.162;2023-03-15T05:49:52;91766.56;;;-1.46;100.00
7660;BME280;3872;47.902;8.162;2023-03-15T05:52:33;91771.16;;;-1.48;100.00
7660;BME280;3872;47.902;8.162;2023-03-15T05:55:19;91775.53;;;-1.48;100.00
7660;BME280;3872;47.902;8.162;2023-03-15T05:58:02;91773.94;;;-1.61;100.00
7660;BME280;3872;47.902;8.162;2023-03-15T06:01:04;91771.16;;;-1.48;100.00
7660;BME280;3872;47.902;8.162;2023-03-15T06:03:51;91776.44;;;-1.31;100.00
7660;BME280;3872;47.902;8.162;2023-03-15T06:06:22;91781.59;;;-1.31;100.00
7660;BME280;3872;47.902;8.162;2023-03-15T06:08:49;91780.38;;;-1.52;100.00
7660;BME280;3872;47.902;8.162;2023-03-15T06:11:15;91786.28;;;-1.63;100.00
7660;BME280;3872;47.902;8.162;2023-03-15T06:13:42;91785.94;;;-1.55;100.00
7660;BME280;3872;47.902;8.162;2023-03-15T06:16:15;91781.72;;;-1.49;100.00
7660;BME280;3872;47.902;8.162;2023-03-15T06:18:45;91780.69;;;-1.60;100.00
7660;BME280;3872;47.902;8.162;2023-03-15T06:21:13;91786.84;;;-1.61;100.00
7660;BME280;3872;47.902;8.162;2023-03-15T06:23:40;91788.09;;;-1.52;100.00
7660;BME280;3872;47.902;8.162;2023-03-15T06:26:06;91786.78;;;-1.31;100.00
7660;BME280;3872;47.902;8.162;2023-03-15T06:28:33;91796.28;;;-1.55;100.00
7660;BME280;3872;47.902;8.162;2023-03-15T06:31:05;91796.81;;;-1.76;100.00
7660;BME280;3872;47.902;8.162;2023-03-15T06:33:38;91799.97;;;-2.04;100.00
7660;BME280;3872;47.902;8.162;2023-03-15T06:36:08;91792.44;;;-1.76;100.00
7660;BME280;3872;47.902;8.162;2023-03-15T06:38:36;91801.69;;;-1.98;100.00
7660;BME280;3872;47.902;8.162;2023-03-15T06:41:04;91806.81;;;-2.10;100.00
7660;BME280;3872;47.902;8.162;2023-03-15T06:43:32;91802.00;;;-1.65;100.00
7660;BME280;3872;47.902;8.162;2023-03-15T06:45:59;91802.56;;;-1.28;100.00
7660;BME280;3872;47.902;8.162;2023-03-15T06:48:26;91798.91;;;-1.08;100.00
7660;BME280;3872;47.902;8.162;2023-03-15T06:50:53;91802.25;;;-0.96;100.00
7660;BME280;3872;47.902;8.162;2023-03-15T06:53:20;91798.94;;;-0.68;100.00
7660;BME280;3872;47.902;8.162;2023-03-15T06:55:48;91802.47;;;-1.09;100.00
7660;BME280;3872;47.902;8.162;2023-03-15T06:58:16;91810.78;;;-0.32;100.00
7660;BME280;3872;47.902;8.162;2023-03-15T07:00:43;91809.00;;;-0.04;100.00
7660;BME280;3872;47.902;8.162;2023-03-15T07:03:09;91815.25;;;0.12;100.00
7660;BME280;3872;47.902;8.162;2023-03-15T07:05:36;91815.81;;;0.14;100.00
7660;BME280;3872;47.902;8.162;2023-03-15T07:08:03;91815.13;;;-0.21;100.00
7660;BME280;3872;47.902;8.162;2023-03-15T07:10:30;91816.75;;;-0.04;100.00
7660;BME280;3872;47.902;8.162;2023-03-15T07:12:58;91815.53;;;0.16;100.00
7660;BME280;3872;47.902;8.162;2023-03-15T07:15:24;91815.97;;;0.24;100.00
7660;BME280;3872;47.902;8.162;2023-03-15T07:17:51;91813.41;;;0.74;100.00
7660;BME280;3872;47.902;8.162;2023-03-15T07:20:17;91808.88;;;0.48;100.00
7660;BME280;3872;47.902;8.162;2023-03-15T07:22:43;91810.13;;;0.79;100.00
7660;BME280;3872;47.902;8.162;2023-03-15T07:25:10;91808.47;;;1.06;100.00
7660;BME280;3872;47.902;8.162;2023-03-15T07:27:37;91808.06;;;0.64;100.00
7660;BME280;3872;47.902;8.162;2023-03-15T07:30:06;91811.16;;;1.33;100.00
7660;BME280;3872;47.902;8.162;2023-03-15T07:32:33;91810.47;;;1.81;100.00
7660;BME280;3872;47.902;8.162;2023-03-15T07:35:00;91819.41;;;1.30;100.00
7660;BME280;3872;47.902;8.162;2023-03-15T07:37:26;91833.03;;;0.54;100.00
7660;BME280;3872;47.902;8.162;2023-03-15T07:39:53;91828.69;;;1.26;100.00
7660;BME280;3872;47.902;8.162;2023-03-15T07:42:19;91831.94;;;0.50;100.00
7660;BME280;3872;47.902;8.162;2023-03-15T07:44:50;91831.22;;;0.54;100.00
7660;BME280;3872;47.902;8.162;2023-03-15T07:47:18;91829.41;;;0.38;100.00
7660;BME280;3872;47.902;8.162;2023-03-15T07:49:44;91834.03;;;0.53;100.00
7660;BME280;3872;47.902;8.162;2023-03-15T07:52:11;91828.88;;;1.03;100.00
7660;BME280;3872;47.902;8.162;2023-03-15T07:54:37;91831.09;;;1.71;100.00
7660;BME280;3872;47.902;8.162;2023-03-15T07:57:04;91836.19;;;1.44;100.00
7660;BME280;3872;47.902;8.162;2023-03-15T07:59:30;91834.75;;;2.19;100.00
7660;BME280;3872;47.902;8.162;2023-03-15T08:01:57;91830.63;;;2.77;100.00
7660;BME280;3872;47.902;8.162;2023-03-15T08:04:25;91841.41;;;3.27;97.08
7660;BME280;3872;47.902;8.162;2023-03-15T08:06:52;91842.44;;;2.89;99.52
7660;BME280;3872;47.902;8.162;2023-03-15T08:09:18;91843.72;;;2.60;100.00
7660;BME280;3872;47.902;8.162;2023-03-15T08:11:45;91841.78;;;3.04;100.00
7660;BME280;3872;47.902;8.162;2023-03-15T08:14:12;91845.44;;;3.45;97.55
7660;BME280;3872;47.902;8.162;2023-03-15T08:16:38;91843.16;;;3.59;97.56
7660;BME280;3872;47.902;8.162;2023-03-15T08:19:05;91840.06;;;4.19;90.78
7660;BME280;3872;47.902;8.162;2023-03-15T08:21:33;91838.88;;;4.67;87.75
7660;BME280;3872;47.902;8.162;2023-03-15T08:24:00;91833.44;;;5.24;86.33
7660;BME280;3872;47.902;8.162;2023-03-15T08:26:26;91841.22;;;5.55;81.73
7660;BME280;3872;47.902;8.162;2023-03-15T08:28:53;91835.47;;;5.68;78.76
7660;BME280;3872;47.902;8.162;2023-03-15T08:31:20;91843.97;;;6.14;79.98
7660;BME280;3872;47.902;8.162;2023-03-15T08:33:47;91843.66;;;6.25;78.17
7660;BME280;3872;47.902;8.162;2023-03-15T08:36:13;91845.66;;;5.74;81.37
7660;BME280;3872;47.902;8.162;2023-03-15T08:38:41;91843.84;;;6.93;73.79
7660;BME280;3872;47.902;8.162;2023-03-15T08:41:08;91843.88;;;6.88;74.15
7660;BME280;3872;47.902;8.162;2023-03-15T08:43:34;91843.97;;;6.14;77.39
7660;BME280;3872;47.902;8.162;2023-03-15T08:46:01;91844.25;;;6.72;75.99
7660;BME280;3872;47.902;8.162;2023-03-15T08:48:27;91841.56;;;7.21;74.23
7660;BME280;3872;47.902;8.162;2023-03-15T08:50:54;91841.44;;;7.36;72.95
7660;BME280;3872;47.902;8.162;2023-03-15T08:53:20;91852.13;;;6.66;73.36
7660;BME280;3872;47.902;8.162;2023-03-15T08:55:48;91847.28;;;6.89;75.30
7660;BME280;3872;47.902;8.162;2023-03-15T08:58:15;91842.00;;;8.14;69.75
7660;BME280;3872;47.902;8.162;2023-03-15T09:00:41;91842.44;;;7.40;68.17
7660;BME280;3872;47.902;8.162;2023-03-15T09:03:08;91847.84;;;7.20;72.67
7660;BME280;3872;47.902;8.162;2023-03-15T09:05:35;91850.47;;;8.06;63.04
7660;BME280;3872;47.902;8.162;2023-03-15T09:08:03;91859.81;;;6.92;69.95
7660;BME280;3872;47.902;8.162;2023-03-15T09:10:29;91855.13;;;7.57;71.62
7660;BME280;3872;47.902;8.162;2023-03-15T09:12:57;91857.34;;;7.73;68.40
7660;BME280;3872;47.902;8.162;2023-03-15T09:15:24;91859.78;;;7.65;71.93
7660;BME280;3872;47.902;8.162;2023-03-15T09:17:51;91862.38;;;8.17;69.35
7660;BME280;3872;47.902;8.162;2023-03-15T09:20:18;91861.50;;;8.93;62.27
7660;BME280;3872;47.902;8.162;2023-03-15T09:22:51;91870.78;;;7.91;61.84
7660;BME280;3872;47.902;8.162;2023-03-15T09:25:18;91869.06;;;8.57;62.33
7660;BME280;3872;47.902;8.162;2023-03-15T09:27:45;91867.50;;;8.33;59.56
7660;BME280;3872;47.902;8.162;2023-03-15T09:30:14;91872.75;;;8.33;64.60
7660;BME280;3872;47.902;8.162;2023-03-15T09:32:41;91874.63;;;8.93;56.08
7660;BME280;3872;47.902;8.162;2023-03-15T09:35:11;91881.41;;;8.76;53.25
7660;BME280;3872;47.902;8.162;2023-03-15T09:37:39;91873.94;;;8.88;53.76
7660;BME280;3872;47.902;8.162;2023-03-15T09:40:12;91875.38;;;8.33;59.59
7660;BME280;3872;47.902;8.162;2023-03-15T09:42:53;91883.78;;;8.30;59.11
7660;BME280;3872;47.902;8.162;2023-03-15T09:45:27;91883.06;;;9.28;57.97
7660;BME280;3872;47.902;8.162;2023-03-15T09:48:02;91874.16;;;9.94;51.24
7660;BME280;3872;47.902;8.162;2023-03-15T09:50:33;91879.00;;;9.54;58.14
7660;BME280;3872;47.902;8.162;2023-03-15T09:53:04;91882.63;;;10.04;53.15
7660;BME280;3872;47.902;8.162;2023-03-15T09:55:40;91887.56;;;10.38;52.10
7660;BME280;3872;47.902;8.162;2023-03-15T09:58:10;91884.38;;;10.41;48.21
7660;BME280;3872;47.902;8.162;2023-03-15T10:00:41;91880.63;;;10.83;49.80
7660;BME280;3872;47.902;8.162;2023-03-15T10:03:15;91892.75;;;10.30;52.26
7660;BME280;3872;47.902;8.162;2023-03-15T10:05:45;91896.53;;;8.60;52.74
7660;BME280;3872;47.902;8.162;2023-03-15T10:08:14;91901.44;;;7.90;49.62
7660;BME280;3872;47.902;8.162;2023-03-15T10:10:48;91902.38;;;6.53;52.79
7660;BME280;3872;47.902;8.162;2023-03-15T10:13:24;91902.59;;;5.47;58.85
7660;BME280;3872;47.902;8.162;2023-03-15T10:16:01;91894.03;;;7.97;51.72
7660;BME280;3872;47.902;8.162;2023-03-15T10:18:41;91904.22;;;7.41;51.30
7660;BME280;3872;47.902;8.162;2023-03-15T10:21:17;91893.13;;;9.91;48.87
7660;BME280;3872;47.902;8.162;2023-03-15T10:23:47;91893.59;;;9.09;50.39
7660;BME280;3872;47.902;8.162;2023-03-15T10:26:18;91902.88;;;8.59;53.91
7660;BME280;3872;47.902;8.162;2023-03-15T10:28:47;91899.75;;;7.07;56.23
7660;BME280;3872;47.902;8.162;2023-03-15T10:31:19;91892.19;;;7.74;56.71
7660;BME280;3872;47.902;8.162;2023-03-15T10:33:47;91894.47;;;8.38;56.20
7660;BME280;3872;47.902;8.162;2023-03-15T10:36:17;91906.59;;;6.44;64.22
7660;BME280;3872;47.902;8.162;2023-03-15T10:38:44;91903.59;;;5.56;63.26
7660;BME280;3872;47.902;8.162;2023-03-15T10:41:13;91894.75;;;5.47;69.38
7660;BME280;3872;47.902;8.162;2023-03-15T10:43:40;91904.91;;;5.43;68.18
7660;BME280;3872;47.902;8.162;2023-03-15T10:46:08;91906.38;;;6.25;69.23
7660;BME280;3872;47.902;8.162;2023-03-15T10:48:38;91894.06;;;9.30;57.85
7660;BME280;3872;47.902;8.162;2023-03-15T10:51:14;91904.00;;;7.32;58.33
7660;BME280;3872;47.902;8.162;2023-03-15T10:53:52;91904.38;;;5.77;64.02
7660;BME280;3872;47.902;8.162;2023-03-15T10:56:22;91897.59;;;5.81;67.01
7660;BME280;3872;47.902;8.162;2023-03-15T10:58:51;91894.06;;;6.36;58.53
7660;BME280;3872;47.902;8.162;2023-03-15T11:01:22;91897.34;;;5.22;66.30
7660;BME280;3872;47.902;8.162;2023-03-15T11:04:08;91898.22;;;6.42;62.82
7660;BME280;3872;47.902;8.162;2023-03-15T11:06:40;91900.19;;;5.71;67.13
7660;BME280;3872;47.902;8.162;2023-03-15T11:09:09;91891.81;;;7.85;64.73
7660;BME280;3872;47.902;8.162;2023-03-15T11:11:53;91892.22;;;9.12;50.21
7660;BME280;3872;47.902;8.162;2023-03-15T11:14:20;91903.66;;;6.56;55.74
7660;BME280;3872;47.902;8.162;2023-03-15T11:16:48;91897.06;;;7.85;53.53
7660;BME280;3872;47.902;8.162;2023-03-15T11:19:19;91899.22;;;6.56;58.37
7660;BME280;3872;47.902;8.162;2023-03-15T11:21:48;91896.81;;;5.75;68.14
7660;BME280;3872;47.902;8.162;2023-03-15T11:24:24;91898.00;;;6.93;60.41
7660;BME280;3872;47.902;8.162;2023-03-15T11:26:52;91891.94;;;6.97;59.82
7660;BME280;3872;47.902;8.162;2023-03-15T11:29:22;91887.44;;;7.76;57.55
7660;BME280;3872;47.902;8.162;2023-03-15T11:31:51;91889.75;;;7.48;54.64
7660;BME280;3872;47.902;8.162;2023-03-15T11:34:25;91898.41;;;6.66;56.21
7660;BME280;3872;47.902;8.162;2023-03-15T11:36:55;91879.94;;;7.93;57.95
7660;BME280;3872;47.902;8.162;2023-03-15T11:39:29;91890.41;;;6.37;54.13
7660;BME280;3872;47.902;8.162;2023-03-15T11:42:01;91889.31;;;6.48;52.83
7660;BME280;3872;47.902;8.162;2023-03-15T11:44:36;91878.19;;;6.77;52.33
7660;BME280;3872;47.902;8.162;2023-03-15T11:47:09;91874.03;;;8.59;51.23
7660;BME280;3872;47.902;8.162;2023-03-15T11:49:42;91874.91;;;7.39;53.65
7660;BME280;3872;47.902;8.162;2023-03-15T11:52:12;91875.84;;;7.19;55.07
7660;BME280;3872;47.902;8.162;2023-03-15T11:54:42;91874.59;;;6.03;56.02
7660;BME280;3872;47.902;8.162;2023-03-15T11:57:37;91872.44;;;7.24;57.20
7660;BME280;3872;47.902;8.162;2023-03-15T12:03:36;91876.81;;;6.35;54.24
7660;BME280;3872;47.902;8.162;2023-03-15T12:09:44;91874.09;;;7.10;53.32
7660;BME280;3872;47.902;8.162;2023-03-15T12:12:34;91881.16;;;8.30;55.25
7660;BME280;3872;47.902;8.162;2023-03-15T12:15:03;91882.41;;;7.17;48.00
7660;BME280;3872;47.902;8.162;2023-03-15T12:17:37;91871.94;;;8.56;46.72
7660;BME280;3872;47.902;8.162;2023-03-15T12:20:12;91870.91;;;7.46;50.24
7660;BME280;3872;47.902;8.162;2023-03-15T12:22:48;91874.25;;;8.39;50.93
7660;BME280;3872;47.902;8.162;2023-03-15T12:25:19;91874.50;;;6.83;48.92
7660;BME280;3872;47.902;8.162;2023-03-15T12:27:49;91869.66;;;7.39;46.56
7660;BME280;3872;47.902;8.162;2023-03-15T12:30:21;91872.44;;;7.24;49.74
7660;BME280;3872;47.902;8.162;2023-03-15T12:32:51;91877.44;;;8.36;50.66
7660;BME280;3872;47.902;8.162;2023-03-15T12:35:20;91876.00;;;7.96;50.96
7660;BME280;3872;47.902;8.162;2023-03-15T12:37:49;91863.19;;;9.73;49.59
7660;BME280;3872;47.902;8.162;2023-03-15T12:40:39;91869.72;;;8.87;47.72
7660;BME280;3872;47.902;8.162;2023-03-15T12:43:06;91878.53;;;7.09;49.03
7660;BME280;3872;47.902;8.162;2023-03-15T12:45:36;91870.19;;;7.70;49.51
7660;BME280;3872;47.902;8.162;2023-03-15T12:48:36;91884.09;;;7.36;50.09
7660;BME280;3872;47.902;8.162;2023-03-15T12:51:41;91881.22;;;7.38;51.13
7660;BME280;3872;47.902;8.162;2023-03-15T12:54:10;91881.63;;;6.72;52.74
7660;BME280;3872;47.902;8.162;2023-03-15T12:56:44;91885.41;;;6.46;51.58
7660;BME280;3872;47.902;8.162;2023-03-15T12:59:24;91881.78;;;6.96;51.05
7660;BME280;3872;47.902;8.162;2023-03-15T13:01:52;91885.25;;;6.76;50.55
7660;BME280;3872;47.902;8.162;2023-03-15T13:04:19;91878.13;;;8.17;50.38
7660;BME280;3872;47.902;8.162;2023-03-15T13:06:55;91878.28;;;7.44;47.47
7660;BME280;3872;47.902;8.162;2023-03-15T13:09:38;91883.84;;;6.40;49.59
7660;BME280;3872;47.902;8.162;2023-03-15T13:12:14;91874.84;;;8.07;46.52
7660;BME280;3872;47.902;8.162;2023-03-15T13:14:49;91882.75;;;7.39;50.17
7660;BME280;3872;47.902;8.162;2023-03-15T13:17:28;91874.31;;;6.05;51.61
7660;BME280;3872;47.902;8.162;2023-03-15T13:20:11;91877.72;;;7.47;51.19
7660;BME280;3872;47.902;8.162;2023-03-15T13:22:47;91881.56;;;6.28;53.26
7660;BME280;3872;47.902;8.162;2023-03-15T13:25:19;91877.41;;;8.12;49.71
7660;BME280;3872;47.902;8.162;2023-03-15T13:27:52;91866.84;;;7.64;50.81
7660;BME280;3872;47.902;8.162;2023-03-15T13:30:32;91864.91;;;8.04;50.85
7660;BME280;3872;47.902;8.162;2023-03-15T13:33:03;91858.22;;;8.83;49.81
7660;BME280;3872;47.902;8.162;2023-03-15T13:35:30;91871.44;;;7.15;50.66
7660;BME280;3872;47.902;8.162;2023-03-15T13:38:05;91865.38;;;8.35;49.19
7660;BME280;3872;47.902;8.162;2023-03-15T13:40:31;91856.47;;;9.16;51.46
7660;BME280;3872;47.902;8.162;2023-03-15T13:43:00;91865.50;;;8.67;46.43
7660;BME280;3872;47.902;8.162;2023-03-15T13:45:26;91849.78;;;9.04;43.58
7660;BME280;3872;47.902;8.162;2023-03-15T13:47:53;91862.56;;;9.30;46.62
7660;BME280;3872;47.902;8.162;2023-03-15T13:50:20;91860.63;;;8.13;47.36
7660;BME280;3872;47.902;8.162;2023-03-15T13:52:47;91862.41;;;9.40;44.75
7660;BME280;3872;47.902;8.162;2023-03-15T13:55:18;91867.78;;;7.78;49.06